2020/01/16

令和2年高岡市消防艇出初式 高岡市 2020/1/16 thu

令和2年の出初式の最後は、高岡市消防艇出初式。伏木富山港国分3号岸壁が開放されて、開催されます。

RJNT 152300Z 18004KT 9999 VCSH FEW025 SCT070 02/M01 Q1024

20200116_0ikf_00moon

朝は青空。お月さまが見下ろしています。

20200116_0ikf_01ja84an

まずは、いつもの定点で

20200116_0ikf_02ja84an

ANA313 RJTT-RJNT JA84AN B737-881

20200116_0ikf_03pl04

道中、お船初詣 PL04「やひこ」

20200116_0ikf_04ps203

PS203「のりくら」

20200116_1kokubu_05cl68

国分に到着すると CL68「たちかぜ」さんが出港していきました。

20200116_1kokubu_06yamato

只今準備中

20200116_1kokubu_07yamato

ドローンも試験飛行

20200116_1kokubu_08fdp

隣りの油槽所に伏木消防署の消防車

20200116_1kokubu_09fdp

要救助者の仕込み中

20200116_1kokubu_10fdp

岸壁では式典の進行確認

20200116_1kokubu_11cl68

「たちかぜ」が戻って

20200116_1kokubu_12cl68

「やひこ」の潜水士さんが乗船

20200116_1kokubu_13fdp

11時 高岡市消防本部音楽隊の演奏から式典が始まりました。

20200116_1kokubu_14yamato

消防艇「やまと」に乗り込み出航

20200116_1kokubu_15yamato

「やまと」と「たちかぜ」は、登舷礼

20200116_1kokubu_16yamato

高岡市消防本部伏木消防署消防艇「やまと」

20200116_1kokubu_17cl68

20200116_1kokubu_18cl68

20200116_1kokubu_19cl68

伏木海上保安部巡視艇CL68「たちかぜ」

20200116_1kokubu_20fdp

セーリング中のヨットが転覆して乗員2名が転落。水面の要救助者は救助員が飛び込んで救出。

20200116_1kokubu_21ja6768

防災ヘリコプターが上空で安全監視

20200116_1kokubu_22fdp

水難救助員がアンカー

20200116_1kokubu_23yamato

「やまと」と「たちかぜ」から潜水士投入

20200116_1kokubu_24cl68

ドッボーン

20200116_1kokubu_25fdp

捜索

20200116_1kokubu_26fdp

要救助者が発見され救助工作車のクレーンで吊り上げ救出

20200116_1kokubu_27ja6768

「とやま」さんは離脱

20200116_1kokubu_28yamato

祝賀放水に移ります

20200116_1kokubu_29yamato

一際高く上げています

20200116_1kokubu_30ja6768

放水に洗われる「とやま」さん

20200116_1kokubu_31yamato

色水放水開始 ラインプロポーショナーと言うがやと

20200116_1kokubu_32cl68

「たちかぜ」さんも放水

20200116_1kokubu_33yamato

拍手喝采

20200116_1kokubu_34ja6768

「とやま」さん敬礼で通過

20200116_1kokubu_35cl68

式は終了して、撤収に入ります。

20200116_1kokubu_36cl68

幼稚園児に絶大なる声援を受けていた「たちかぜ」

20200116_1kokubu_37yamato

「やまと」さんも所定の位置へ接岸します。

20200116_1kokubu_38iwasakimisaki

岩崎鼻灯台を眺めながら、国分から撤収します。

ここからは、番外編

帰路の途中、伏木岸壁でタグ「日本海」さんのお仕事を見学。

20200116_2fushiki_51nihonkai

朝、「のりくら」さんの向こうに見えたタンカー「わたつみ」

20200116_2fushiki_50nihonkai

「日本海」さんは、出航の介添えです。

20200116_2fushiki_52ja10ym

JA10YM A109SP 富山県ドクターヘリ

丁度、氷見事案に向かうドクヘリさんが通過

20200116_2fushiki_53watatsumi

いかりを上げながら、後部スラスターを使い離岸します。

20200116_2fushiki_54watatsumi

脱錨

20200116_2fushiki_55nihonkai

「日本海」さんが引いて、右回転で転回

20200116_2fushiki_56watatsumi

わたつみ 宇和海汽船、鉄道・運輸機構 JD2905

20200116_2fushiki_57watatsumi

「日本海」さんのお仕事は、ここまで

20200116_2fushiki_58watatsumi

富山県の生命線を担うタンカー 宇部港へ戻るようです。

20200116_2fushiki_59tsurugi

朝は出航していた「つるぎ」さんで、本日のお船はお終い。

| | コメント (0)

2020/01/14

定点 富山空港 2020/1/14 tue

成人式も終わり、従来ならば暖冬といえど、この辺りで雪が降るものだが・・・

RJNT 140000Z 27003KT 9999 FEW020 SCT060 BKN070 05/03 Q1021

20200114_rjnt_00ja55an

20200114_rjnt_01ja55an

ANA313 RJTT-RJNT JA55AN B737-881

20200114_rjnt_02ja6512

JA6512 AS350B3 AKF ↑

20200114_rjnt_03ja6516

JA6516 AS350B3 AKF ↑

20200114_rjnt_04ja55an

20200114_rjnt_05ja55an

ANA316 RJNT-RJTT JA55AN B737-881

RJNT 140100Z VRB02KT 9999 FEW020 SCT050 BKN060 06/03 Q1022

20200114_rjnt_06ja10ym

JA10YM A109SP 富山県ドクターヘリ 八尾事案

20200114_rjnt_07ja76an

20200114_rjnt_08ja76an

ANA315 RJTT-RJNT JA76AN B737-881

RJNT 140200Z VRB02KT 9999 FEW020 BKN060 08/04 Q1021

20200114_rjnt_09ja6516

JA6516 ↓

20200114_rjnt_10ja6516

JA6516 ↑

20200114_rjnt_11ja76an

20200114_rjnt_12ja76an

ANA1181 RJNT-RJCC JA76AN B737-881

RJNT 140400Z 28003KT 9999 FEW020 BKN050 08/03 Q1019

20200114_rjnt_13ja119w

午後からWさんの訓練

20200114_rjnt_14ja119w

JA119W AW139 富山県消防防災

RJNT 140500Z VRB02KT 9999 FEW020 BKN050 BKN060 08/04 Q1019

20200114_rjnt_15ja6516

JA6516 ↑

所要でCSH825の到着は、撮り逃し

20200114_rjnt_16b5801

20200114_rjnt_17b5801

CSH826 RJNT-ZSPD B-5801 B737-76D

20200114_rjnt_18b5801

次回からJALのコードシェアが始まります。

 

| | コメント (0)

«定点 富山空港 2020/1/11 sat